NCAR-RAP Real-Time Weather Data

Output produced by METARs form (12 August 2020  18:43 UTC)
found at http://weather.rap.ucar.edu/surface/
 
KBLF 121835Z AUTO VRB03KT 10SM VCTS FEW031 SCT060 27/20 A3013 RMK AO2 LTG DSNT E-SW RAB01E22 P0000 T02670200
KBLF 121752Z AUTO 17003KT 10SM FEW029 BKN095 25/20 A3015 RMK AO2 LTG DSNT SE AND S SLP171 T02500200 10261 20183 58007
KBLF 121652Z AUTO 09004KT 10SM FEW023 SCT030 BKN095 25/21 A3016 RMK AO2 LTG DSNT SE AND S SLP174 T02500211
KBLF 121640Z AUTO 08003KT 10SM FEW021 SCT028 25/21 A3016 RMK AO2 T02500206
KBLF 121628Z AUTO VRB04KT 10SM BKN023 26/21 A3017 RMK AO2 T02560211
KBLF 121552Z AUTO 00000KT 10SM BKN080 OVC095 25/21 A3017 RMK AO2 SLP177 T02500206
KBLF 121452Z AUTO VRB03KT 10SM FEW015 BKN080 OVC100 24/21 A3017 RMK AO2 SLP181 T02390206 55001
KBLF 121438Z AUTO VRB03KT 10SM SCT015 BKN080 BKN100 23/20 A3018 RMK AO2 T02280200
KBLF 121423Z AUTO 07003KT 10SM BKN013 22/20 A3018 RMK AO2 T02220200
KBLF 121359Z AUTO VRB03KT 10SM SCT009 23/21 A3017 RMK AO2 T02280206 TSNO
KBLF 121352Z AUTO 13004KT 10SM BKN007 23/21 A3017 RMK AO2 CIG 006V011 SLP180 T02280206 TSNO
KBLF 121308Z AUTO 00000KT 10SM BKN007 22/21 A3018 RMK AO2 T02220206 TSNO
KBLF 121252Z AUTO 00000KT 10SM SCT007 21/20 A3018 RMK AO2 SLP184 T02110200 TSNO
KBLF 121220Z AUTO 00000KT 10SM BKN008 21/19 A3018 RMK AO2 T02060194 TSNO
KBLF 121205Z AUTO 00000KT 8SM SCT008 19/19 A3018 RMK AO2 T01940194 TSNO
KBLF 121202Z AUTO 00000KT 3SM BR BKN010 19/19 A3018 RMK AO2 T01890189 TSNO
KBLF 121152Z AUTO 24003KT 1 3/4SM BR FEW002 18/18 A3018 RMK AO2 SLP187 60003 70009 T01830183 10206 20178 53014 TSNO
KBLF 121142Z AUTO 29003KT 1 1/2SM BR CLR 18/18 A3017 RMK AO2 T01830183 TSNO
KBLF 121052Z AUTO 00000KT 4SM BR CLR 18/18 A3015 RMK AO2 SLP176 T01830183 TSNO
KBLF 120952Z AUTO 00000KT 10SM FEW050 OVC070 19/19 A3015 RMK AO2 SLP170 T01890189 TSNO
KBLF 120906Z AUTO 00000KT 4SM BR BKN045 19/19 A3014 RMK AO2 T01890189
KBLF 120903Z AUTO 00000KT 1 1/4SM BR BKN045 BKN110 19/19 A3014 RMK AO2 T01890189
KBLF 120859Z AUTO 00000KT 1/2SM FG BKN045 BKN110 19/19 A3014 RMK AO2 T01890189
KBLF 120852Z AUTO 00000KT 1SM BR FEW001 SCT045 BKN110 19/19 A3013 RMK AO2 SLP166 60003 T01890189 55004
KBLF 120850Z AUTO 00000KT 2SM BR FEW001 FEW043 BKN110 19/19 A3013 RMK AO2
KBLF 120752Z AUTO 00000KT 10SM OVC110 19/19 A3013 RMK AO2 RAE15 SLP162 P0000 T01940194
KBLF 120720Z AUTO 01003KT 10SM SCT030 BKN037 OVC110 20/20 A3013 RMK AO2 RAE15 P0000 T02000200
KBLF 120652Z AUTO 00000KT 9SM -RA BKN021 OVC026 20/20 A3014 RMK AO2 RAB11 SLP169 P0003 T02000200
KBLF 120632Z AUTO 01003KT 9SM -RA OVC021 20/20 A3014 RMK AO2 RAB11 P0002 T02000200
KBLF 120552Z AUTO 25003KT 10SM VCTS BKN027 OVC120 21/20 A3014 RMK AO2 SLP167 T02060200 10217 20200 51005
KBLF 120548Z AUTO 25003KT 10SM VCTS BKN027 OVC120 21/20 A3014 RMK AO2
KBLF 120452Z AUTO 00000KT 10SM BKN120 21/20 A3014 RMK AO2 SLP169 T02060200 402780172
KBLF 120401Z AUTO 00000KT 10SM SCT023 OVC110 21/20 A3014 RMK AO2 T02060200
KBLF 120352Z AUTO 00000KT 10SM BKN023 OVC110 21/19 A3014 RMK AO2 SLP167 T02110194
KBLF 120252Z AUTO 00000KT 10SM BKN025 OVC034 21/20 A3013 RMK AO2 SLP168 T02060200 51010
KBLF 120152Z AUTO 25003KT 10SM BKN029 OVC100 21/20 A3012 RMK AO2 SLP164 T02110200
KBLF 120145Z AUTO 25003KT 10SM BKN027 OVC100 21/21 A3012 RMK AO2 T02110206
KBLF 120052Z AUTO 00000KT 10SM OVC100 21/21 A3011 RMK AO2 LTG DSNT S SLP161 T02060206
KBLF 112352Z AUTO 00000KT 10SM BKN100 OVC120 22/21 A3010 RMK AO2 RAE33 SLP157 P0005 60006 T02170206 10278 20206 53003
KBLF 112252Z AUTO VRB03KT 7SM -RA FEW036 BKN070 OVC100 22/19 A3009 RMK AO2 RAB49 SLP158 P0001 T02220194
KBLF 112234Z AUTO 07006KT 10SM SCT042 OVC100 23/19 A3009 RMK AO2 LTG DSNT E AND SW T02330194
KBLF 112206Z AUTO VRB04KT 10SM VCTS FEW039 SCT048 26/19 A3008 RMK AO2 LTG DSNT SE T02610194
KBLF 112152Z AUTO 35005KT 10SM FEW039 SCT046 BKN095 27/19 A3008 RMK AO2 LTG DSNT SE AND S SLP148 T02670194
KBLF 112052Z AUTO 28004KT 10SM CLR 26/19 A3009 RMK AO2 SLP150 T02560194 56010